sensor_id;sensor_type;location;lat;lon;timestamp;pressure;altitude;pressure_sealevel;temperature;humidity
75609;BME280;64194;51.044;13.780;2023-04-24T00:03:28;99136.16;;;12.81;75.72
75609;BME280;64194;51.044;13.780;2023-04-24T00:07:31;99129.00;;;12.82;75.26
75609;BME280;64194;51.044;13.780;2023-04-24T00:11:32;99124.22;;;12.85;75.80
75609;BME280;64194;51.044;13.780;2023-04-24T00:15:34;99125.34;;;12.83;75.50
75609;BME280;64194;51.044;13.780;2023-04-24T00:19:36;99120.53;;;12.77;75.87
75609;BME280;64194;51.044;13.780;2023-04-24T00:23:37;99128.66;;;12.66;76.26
75609;BME280;64194;51.044;13.780;2023-04-24T00:27:39;99131.88;;;12.60;76.66
75609;BME280;64194;51.044;13.780;2023-04-24T00:31:40;99149.25;;;12.54;76.68
75609;BME280;64194;51.044;13.780;2023-04-24T00:35:42;99153.09;;;12.40;77.04
75609;BME280;64194;51.044;13.780;2023-04-24T00:39:44;99146.75;;;12.32;77.45
75609;BME280;64194;51.044;13.780;2023-04-24T00:43:46;99152.41;;;12.18;78.48
75609;BME280;64194;51.044;13.780;2023-04-24T00:47:48;99138.78;;;12.11;78.70
75609;BME280;64194;51.044;13.780;2023-04-24T00:51:50;99137.28;;;12.18;78.47
75609;BME280;64194;51.044;13.780;2023-04-24T00:55:52;99138.25;;;12.17;78.60
75609;BME280;64194;51.044;13.780;2023-04-24T00:59:54;99126.66;;;12.18;78.31
75609;BME280;64194;51.044;13.780;2023-04-24T01:03:57;99126.97;;;12.25;78.18
75609;BME280;64194;51.044;13.780;2023-04-24T01:07:59;99120.53;;;12.27;78.18
75609;BME280;64194;51.044;13.780;2023-04-24T01:12:01;99123.22;;;12.27;78.20
75609;BME280;64194;51.044;13.780;2023-04-24T01:16:02;99120.53;;;12.27;78.18
75609;BME280;64194;51.044;13.780;2023-04-24T01:20:04;99126.56;;;12.29;78.52
75609;BME280;64194;51.044;13.780;2023-04-24T01:24:07;99128.69;;;12.35;78.10
75609;BME280;64194;51.044;13.780;2023-04-24T01:28:09;99141.59;;;12.40;78.19
75609;BME280;64194;51.044;13.780;2023-04-24T01:32:12;99133.16;;;12.35;78.20
75609;BME280;64194;51.044;13.780;2023-04-24T01:36:16;99134.00;;;12.35;78.47
75609;BME280;64194;51.044;13.780;2023-04-24T01:40:17;99138.50;;;12.35;78.40
75609;BME280;64194;51.044;13.780;2023-04-24T01:44:19;99137.97;;;12.41;78.11
75609;BME280;64194;51.044;13.780;2023-04-24T01:48:22;99127.31;;;12.41;78.58
75609;BME280;64194;51.044;13.780;2023-04-24T01:52:23;99133.47;;;12.41;78.18
75609;BME280;64194;51.044;13.780;2023-04-24T01:56:28;99121.88;;;12.42;78.08
75609;BME280;64194;51.044;13.780;2023-04-24T02:00:30;99133.19;;;12.44;78.28
75609;BME280;64194;51.044;13.780;2023-04-24T02:04:32;99126.47;;;12.40;78.55
75609;BME280;64194;51.044;13.780;2023-04-24T02:08:33;99126.47;;;12.40;78.75
75609;BME280;64194;51.044;13.780;2023-04-24T02:12:35;99119.44;;;12.39;78.55
75609;BME280;64194;51.044;13.780;2023-04-24T02:16:37;99117.31;;;12.33;78.65
75609;BME280;64194;51.044;13.780;2023-04-24T02:20:39;99120.25;;;12.30;79.16
75609;BME280;64194;51.044;13.780;2023-04-24T02:24:40;99115.22;;;12.27;78.96
75609;BME280;64194;51.044;13.780;2023-04-24T02:28:42;99120.25;;;12.30;78.98
75609;BME280;64194;51.044;13.780;2023-04-24T02:32:44;99122.66;;;12.33;78.99
75609;BME280;64194;51.044;13.780;2023-04-24T02:36:46;99125.59;;;12.30;78.86
75609;BME280;64194;51.044;13.780;2023-04-24T02:40:49;99120.25;;;12.30;79.17
75609;BME280;64194;51.044;13.780;2023-04-24T02:44:50;99125.03;;;12.27;79.32
75609;BME280;64194;51.044;13.780;2023-04-24T02:48:52;99118.84;;;12.26;79.33
75609;BME280;64194;51.044;13.780;2023-04-24T02:52:54;99118.56;;;12.29;79.30
75609;BME280;64194;51.044;13.780;2023-04-24T02:56:56;99114.75;;;12.22;79.34
75609;BME280;64194;51.044;13.780;2023-04-24T03:00:58;99121.31;;;12.18;79.74
75609;BME280;64194;51.044;13.780;2023-04-24T03:04:59;99118.94;;;12.15;79.70
75609;BME280;64194;51.044;13.780;2023-04-24T03:09:01;99108.97;;;12.17;79.76
75609;BME280;64194;51.044;13.780;2023-04-24T03:13:02;99121.06;;;12.21;79.67
75609;BME280;64194;51.044;13.780;2023-04-24T03:17:04;99116.72;;;12.20;79.72
75609;BME280;64194;51.044;13.780;2023-04-24T03:21:06;99119.91;;;12.14;79.86
75609;BME280;64194;51.044;13.780;2023-04-24T03:25:08;99114.72;;;12.12;79.94
75609;BME280;64194;51.044;13.780;2023-04-24T03:29:11;99116.81;;;12.09;80.18
75609;BME280;64194;51.044;13.780;2023-04-24T03:33:13;99122.66;;;12.03;80.41
75609;BME280;64194;51.044;13.780;2023-04-24T03:43:28;99126.41;;;12.00;80.23
75609;BME280;64194;51.044;13.780;2023-04-24T03:52:26;99138.28;;;11.96;80.22
75609;BME280;64194;51.044;13.780;2023-04-24T03:56:28;99138.56;;;11.93;80.00
75609;BME280;64194;51.044;13.780;2023-04-24T04:05:33;99148.69;;;11.99;79.97
75609;BME280;64194;51.044;13.780;2023-04-24T04:09:35;99154.91;;;12.09;79.52
75609;BME280;64194;51.044;13.780;2023-04-24T04:18:30;99159.47;;;12.28;78.31
75609;BME280;64194;51.044;13.780;2023-04-24T04:22:32;99163.88;;;12.39;77.49
75609;BME280;64194;51.044;13.780;2023-04-24T04:27:05;99161.00;;;12.51;77.26
75609;BME280;64194;51.044;13.780;2023-04-24T04:31:37;99162.91;;;12.70;76.38
75609;BME280;64194;51.044;13.780;2023-04-24T04:35:44;99163.19;;;12.77;75.81
75609;BME280;64194;51.044;13.780;2023-04-24T04:40:12;99159.00;;;12.84;75.79
75609;BME280;64194;51.044;13.780;2023-04-24T04:49:49;99147.13;;;12.97;70.19
75609;BME280;64194;51.044;13.780;2023-04-24T04:54:43;99151.09;;;13.13;69.88
75609;BME280;64194;51.044;13.780;2023-04-24T04:58:45;99151.81;;;13.24;67.93
75609;BME280;64194;51.044;13.780;2023-04-24T05:02:51;99160.13;;;13.40;68.35
75609;BME280;64194;51.044;13.780;2023-04-24T05:17:48;99163.66;;;14.26;66.33
75609;BME280;64194;51.044;13.780;2023-04-24T05:21:55;99162.50;;;14.48;65.87
75609;BME280;64194;51.044;13.780;2023-04-24T05:25:57;99163.88;;;14.52;65.80
75609;BME280;64194;51.044;13.780;2023-04-24T05:29:59;99163.72;;;14.53;65.63
75609;BME280;64194;51.044;13.780;2023-04-24T05:34:00;99167.56;;;14.51;66.15
75609;BME280;64194;51.044;13.780;2023-04-24T05:38:02;99164.19;;;14.49;66.84
75609;BME280;64194;51.044;13.780;2023-04-24T05:48:10;99168.66;;;14.85;63.72
75609;BME280;64194;51.044;13.780;2023-04-24T05:52:14;99162.63;;;14.83;63.46
75609;BME280;64194;51.044;13.780;2023-04-24T05:56:39;99163.09;;;14.96;61.74
75609;BME280;64194;51.044;13.780;2023-04-24T06:00:48;99169.78;;;15.10;61.67
75609;BME280;64194;51.044;13.780;2023-04-24T06:04:58;99171.06;;;15.06;61.61
75609;BME280;64194;51.044;13.780;2023-04-24T06:09:01;99178.72;;;15.19;61.18
75609;BME280;64194;51.044;13.780;2023-04-24T06:13:03;99172.06;;;15.23;59.00
75609;BME280;64194;51.044;13.780;2023-04-24T06:17:40;99174.75;;;15.23;57.23
75609;BME280;64194;51.044;13.780;2023-04-24T06:27:30;99169.13;;;15.97;55.74
75609;BME280;64194;51.044;13.780;2023-04-24T06:31:31;99168.88;;;16.33;54.63
75609;BME280;64194;51.044;13.780;2023-04-24T06:35:38;99181.00;;;16.46;54.32
75609;BME280;64194;51.044;13.780;2023-04-24T06:40:14;99178.97;;;16.65;53.11
75609;BME280;64194;51.044;13.780;2023-04-24T06:44:48;99181.56;;;16.83;51.65
75609;BME280;64194;51.044;13.780;2023-04-24T06:49:11;99180.72;;;16.31;52.84
75609;BME280;64194;51.044;13.780;2023-04-24T06:53:13;99183.19;;;16.76;52.88
75609;BME280;64194;51.044;13.780;2023-04-24T06:57:34;99186.97;;;17.49;50.66
75609;BME280;64194;51.044;13.780;2023-04-24T07:01:50;99193.44;;;17.89;48.67
75609;BME280;64194;51.044;13.780;2023-04-24T07:06:24;99192.06;;;18.17;47.82
75609;BME280;64194;51.044;13.780;2023-04-24T07:25:58;99204.38;;;19.61;44.73
75609;BME280;64194;51.044;13.780;2023-04-24T07:29:59;99207.50;;;19.50;43.34
75609;BME280;64194;51.044;13.780;2023-04-24T07:39:19;99206.94;;;16.97;48.64
75609;BME280;64194;51.044;13.780;2023-04-24T07:43:21;99211.09;;;17.41;48.11
75609;BME280;64194;51.044;13.780;2023-04-24T07:47:24;99213.25;;;17.88;47.95
75609;BME280;64194;51.044;13.780;2023-04-24T07:51:26;99210.19;;;18.39;47.10
75609;BME280;64194;51.044;13.780;2023-04-24T07:55:50;99223.31;;;17.78;47.75
75609;BME280;64194;51.044;13.780;2023-04-24T07:59:56;99217.59;;;18.13;49.04
75609;BME280;64194;51.044;13.780;2023-04-24T08:03:57;99215.59;;;19.03;45.16
75609;BME280;64194;51.044;13.780;2023-04-24T08:08:00;99218.84;;;18.82;44.34
75609;BME280;64194;51.044;13.780;2023-04-24T08:12:35;99215.53;;;19.58;43.75
75609;BME280;64194;51.044;13.780;2023-04-24T08:21:29;99211.06;;;18.00;46.50
75609;BME280;64194;51.044;13.780;2023-04-24T08:25:31;99214.91;;;18.37;45.64
75609;BME280;64194;51.044;13.780;2023-04-24T08:29:33;99204.31;;;19.07;44.13
75609;BME280;64194;51.044;13.780;2023-04-24T08:33:41;99203.16;;;19.41;44.33
75609;BME280;64194;51.044;13.780;2023-04-24T08:37:43;99210.13;;;19.81;42.62
75609;BME280;64194;51.044;13.780;2023-04-24T08:42:06;99221.69;;;18.97;43.27
75609;BME280;64194;51.044;13.780;2023-04-24T08:46:10;99214.53;;;19.20;42.77
75609;BME280;64194;51.044;13.780;2023-04-24T08:50:13;99215.88;;;18.61;44.34
75609;BME280;64194;51.044;13.780;2023-04-24T08:59:11;99214.50;;;18.81;43.83
75609;BME280;64194;51.044;13.780;2023-04-24T09:03:34;99219.25;;;19.57;43.06
75609;BME280;64194;51.044;13.780;2023-04-24T09:08:16;99207.91;;;20.67;40.57
75609;BME280;64194;51.044;13.780;2023-04-24T09:12:41;99209.19;;;20.71;37.86
75609;BME280;64194;51.044;13.780;2023-04-24T09:17:11;99213.88;;;21.57;37.00
75609;BME280;64194;51.044;13.780;2023-04-24T09:21:14;99218.97;;;22.03;35.28
75609;BME280;64194;51.044;13.780;2023-04-24T09:25:18;99227.47;;;22.77;35.90
75609;BME280;64194;51.044;13.780;2023-04-24T09:29:22;99224.47;;;22.93;34.41
75609;BME280;64194;51.044;13.780;2023-04-24T09:34:06;99228.88;;;21.45;37.17
75609;BME280;64194;51.044;13.780;2023-04-24T09:38:11;99226.28;;;22.09;35.94
75609;BME280;64194;51.044;13.780;2023-04-24T09:42:36;99222.16;;;22.13;35.99
75609;BME280;64194;51.044;13.780;2023-04-24T09:47:06;99226.25;;;21.88;37.48
75609;BME280;64194;51.044;13.780;2023-04-24T09:51:13;99220.34;;;20.68;37.21
75609;BME280;64194;51.044;13.780;2023-04-24T09:55:39;99227.28;;;20.11;38.62
75609;BME280;64194;51.044;13.780;2023-04-24T10:00:01;99221.75;;;20.27;38.29
75609;BME280;64194;51.044;13.780;2023-04-24T10:04:28;99217.00;;;20.66;38.42
75609;BME280;64194;51.044;13.780;2023-04-24T10:08:53;99218.41;;;20.77;38.46
75609;BME280;64194;51.044;13.780;2023-04-24T10:12:57;99217.47;;;20.55;37.64
75609;BME280;64194;51.044;13.780;2023-04-24T10:16:59;99219.22;;;20.48;36.95
75609;BME280;64194;51.044;13.780;2023-04-24T10:21:42;99228.81;;;20.05;38.33
75609;BME280;64194;51.044;13.780;2023-04-24T10:26:21;99224.50;;;20.41;38.04
75609;BME280;64194;51.044;13.780;2023-04-24T10:30:28;99211.69;;;21.17;35.74
75609;BME280;64194;51.044;13.780;2023-04-24T10:34:52;99215.78;;;21.13;35.90
75609;BME280;64194;51.044;13.780;2023-04-24T10:38:55;99211.13;;;22.64;34.82
75609;BME280;64194;51.044;13.780;2023-04-24T10:43:02;99203.44;;;23.43;32.42
75609;BME280;64194;51.044;13.780;2023-04-24T10:47:22;99190.66;;;24.89;30.59
75609;BME280;64194;51.044;13.780;2023-04-24T10:51:49;99214.38;;;23.62;31.19
75609;BME280;64194;51.044;13.780;2023-04-24T10:56:15;99212.63;;;21.09;35.66
75609;BME280;64194;51.044;13.780;2023-04-24T11:00:28;99199.25;;;20.72;37.01
75609;BME280;64194;51.044;13.780;2023-04-24T11:04:50;99208.22;;;20.12;38.08
75609;BME280;64194;51.044;13.780;2023-04-24T11:09:12;99214.50;;;18.73;41.05
75609;BME280;64194;51.044;13.780;2023-04-24T11:18:02;99223.31;;;18.59;41.91
75609;BME280;64194;51.044;13.780;2023-04-24T11:22:26;99222.97;;;18.13;43.55
75609;BME280;64194;51.044;13.780;2023-04-24T11:26:56;99224.63;;;18.38;42.56
75609;BME280;64194;51.044;13.780;2023-04-24T11:30:58;99237.25;;;18.38;43.78
75609;BME280;64194;51.044;13.780;2023-04-24T11:35:41;99240.78;;;18.63;43.63
75609;BME280;64194;51.044;13.780;2023-04-24T11:39:42;99238.56;;;18.50;43.58
75609;BME280;64194;51.044;13.780;2023-04-24T11:43:44;99241.09;;;18.68;42.59
75609;BME280;64194;51.044;13.780;2023-04-24T11:47:50;99220.69;;;19.90;40.21
75609;BME280;64194;51.044;13.780;2023-04-24T11:51:56;99221.81;;;21.80;35.90
75609;BME280;64194;51.044;13.780;2023-04-24T11:56:06;99217.63;;;21.78;36.93
75609;BME280;64194;51.044;13.780;2023-04-24T12:00:37;99226.41;;;20.85;37.89
75609;BME280;64194;51.044;13.780;2023-04-24T12:04:58;99217.97;;;22.60;35.39
75609;BME280;64194;51.044;13.780;2023-04-24T12:09:18;99210.94;;;26.70;28.26
75609;BME280;64194;51.044;13.780;2023-04-24T12:13:21;99210.00;;;26.58;29.17
75609;BME280;64194;51.044;13.780;2023-04-24T12:17:32;99221.16;;;23.39;31.62
75609;BME280;64194;51.044;13.780;2023-04-24T12:21:33;99219.94;;;21.45;35.91
75609;BME280;64194;51.044;13.780;2023-04-24T12:25:35;99222.41;;;20.29;35.98
75609;BME280;64194;51.044;13.780;2023-04-24T12:30:15;99227.72;;;19.46;35.86
75609;BME280;64194;51.044;13.780;2023-04-24T12:34:20;99233.84;;;19.62;36.14
75609;BME280;64194;51.044;13.780;2023-04-24T12:38:56;99213.13;;;22.27;31.43
75609;BME280;64194;51.044;13.780;2023-04-24T12:48:20;99217.53;;;27.90;23.95
75609;BME280;64194;51.044;13.780;2023-04-24T12:52:43;99222.44;;;29.23;21.67
75609;BME280;64194;51.044;13.780;2023-04-24T12:57:13;99228.28;;;28.68;23.00
75609;BME280;64194;51.044;13.780;2023-04-24T13:01:15;99226.00;;;25.47;26.18
75609;BME280;64194;51.044;13.780;2023-04-24T13:05:33;99227.03;;;24.62;27.95
75609;BME280;64194;51.044;13.780;2023-04-24T13:10:08;99216.97;;;24.03;30.27
75609;BME280;64194;51.044;13.780;2023-04-24T13:25:20;99203.34;;;36.10;13.98
75609;BME280;64194;51.044;13.780;2023-04-24T13:29:22;99208.22;;;36.57;13.27
75609;BME280;64194;51.044;13.780;2023-04-24T13:33:24;99218.00;;;33.58;17.29
75609;BME280;64194;51.044;13.780;2023-04-24T13:37:26;99205.47;;;34.18;15.06
75609;BME280;64194;51.044;13.780;2023-04-24T13:41:28;99235.72;;;35.45;14.13
75609;BME280;64194;51.044;13.780;2023-04-24T13:45:29;99218.97;;;32.85;15.48
75609;BME280;64194;51.044;13.780;2023-04-24T13:49:31;99218.81;;;32.33;15.26
75609;BME280;64194;51.044;13.780;2023-04-24T13:53:33;99225.19;;;28.11;18.17
75609;BME280;64194;51.044;13.780;2023-04-24T13:57:37;99221.50;;;25.21;24.07
75609;BME280;64194;51.044;13.780;2023-04-24T14:01:39;99220.19;;;22.77;25.16
75609;BME280;64194;51.044;13.780;2023-04-24T14:05:40;99218.72;;;23.09;25.51
75609;BME280;64194;51.044;13.780;2023-04-24T14:09:42;99220.28;;;23.31;26.86
75609;BME280;64194;51.044;13.780;2023-04-24T14:23:28;99206.84;;;22.76;27.90
75609;BME280;64194;51.044;13.780;2023-04-24T14:27:31;99214.41;;;22.31;28.15
75609;BME280;64194;51.044;13.780;2023-04-24T14:31:33;99209.44;;;22.35;28.21
75609;BME280;64194;51.044;13.780;2023-04-24T14:35:36;99216.09;;;21.90;29.23
75609;BME280;64194;51.044;13.780;2023-04-24T14:39:38;99210.84;;;22.03;33.36
75609;BME280;64194;51.044;13.780;2023-04-24T14:44:12;99209.31;;;21.79;27.12
75609;BME280;64194;51.044;13.780;2023-04-24T14:53:06;99201.47;;;21.27;29.85
75609;BME280;64194;51.044;13.780;2023-04-24T14:57:08;99207.41;;;21.08;33.16
75609;BME280;64194;51.044;13.780;2023-04-24T15:01:10;99211.25;;;20.99;28.94
75609;BME280;64194;51.044;13.780;2023-04-24T15:05:12;99216.44;;;20.56;32.20
75609;BME280;64194;51.044;13.780;2023-04-24T15:09:14;99221.63;;;20.20;30.96
75609;BME280;64194;51.044;13.780;2023-04-24T15:13:16;99234.22;;;19.82;31.91
75609;BME280;64194;51.044;13.780;2023-04-24T15:17:17;99229.69;;;19.75;30.75
75609;BME280;64194;51.044;13.780;2023-04-24T15:21:19;99237.31;;;18.93;32.19
75609;BME280;64194;51.044;13.780;2023-04-24T15:25:21;99239.13;;;19.09;33.69
75609;BME280;64194;51.044;13.780;2023-04-24T15:29:23;99246.59;;;18.83;30.86
75609;BME280;64194;51.044;13.780;2023-04-24T15:33:24;99244.25;;;18.71;30.84
75609;BME280;64194;51.044;13.780;2023-04-24T15:37:27;99254.22;;;18.30;31.80
75609;BME280;64194;51.044;13.780;2023-04-24T15:41:32;99246.50;;;18.44;32.25
75609;BME280;64194;51.044;13.780;2023-04-24T15:45:45;99263.94;;;18.07;32.39
75609;BME280;64194;51.044;13.780;2023-04-24T15:49:47;99256.56;;;18.01;32.90
75609;BME280;64194;51.044;13.780;2023-04-24T15:53:51;99275.38;;;18.09;33.37
75609;BME280;64194;51.044;13.780;2023-04-24T16:07:37;99271.63;;;17.28;36.55
75609;BME280;64194;51.044;13.780;2023-04-24T16:11:40;99277.78;;;17.20;36.03
75609;BME280;64194;51.044;13.780;2023-04-24T16:15:47;99278.19;;;16.99;36.35
75609;BME280;64194;51.044;13.780;2023-04-24T16:19:49;99275.31;;;16.93;37.70
75609;BME280;64194;51.044;13.780;2023-04-24T16:23:51;99270.53;;;16.79;36.99
75609;BME280;64194;51.044;13.780;2023-04-24T16:27:52;99279.94;;;16.83;37.33
75609;BME280;64194;51.044;13.780;2023-04-24T16:32:12;99279.09;;;16.82;37.76
75609;BME280;64194;51.044;13.780;2023-04-24T16:36:14;99284.63;;;16.81;38.59
75609;BME280;64194;51.044;13.780;2023-04-24T16:40:17;99294.56;;;16.62;37.42
75609;BME280;64194;51.044;13.780;2023-04-24T16:44:51;99303.59;;;16.61;41.63
75609;BME280;64194;51.044;13.780;2023-04-24T16:53:46;99316.09;;;16.17;40.00
75609;BME280;64194;51.044;13.780;2023-04-24T17:03:43;99322.00;;;16.03;39.96
75609;BME280;64194;51.044;13.780;2023-04-24T17:08:25;99318.72;;;15.92;40.08
75609;BME280;64194;51.044;13.780;2023-04-24T17:12:47;99329.47;;;15.82;41.05
75609;BME280;64194;51.044;13.780;2023-04-24T17:17:08;99327.69;;;15.73;41.02
75609;BME280;64194;51.044;13.780;2023-04-24T17:21:10;99335.53;;;15.84;44.58
75609;BME280;64194;51.044;13.780;2023-04-24T17:25:15;99342.06;;;15.54;41.84
75609;BME280;64194;51.044;13.780;2023-04-24T17:29:16;99351.41;;;15.31;44.13
75609;BME280;64194;51.044;13.780;2023-04-24T17:33:23;99360.34;;;15.22;45.33
75609;BME280;64194;51.044;13.780;2023-04-24T17:37:25;99366.56;;;15.03;44.05
75609;BME280;64194;51.044;13.780;2023-04-24T17:41:47;99369.44;;;14.82;44.78
75609;BME280;64194;51.044;13.780;2023-04-24T17:45:49;99381.25;;;14.80;44.74
75609;BME280;64194;51.044;13.780;2023-04-24T17:49:59;99388.56;;;14.68;45.49
75609;BME280;64194;51.044;13.780;2023-04-24T17:54:35;99398.69;;;14.74;48.85
75609;BME280;64194;51.044;13.780;2023-04-24T18:03:55;99408.84;;;14.61;44.96
75609;BME280;64194;51.044;13.780;2023-04-24T18:08:20;99414.91;;;14.44;46.44
75609;BME280;64194;51.044;13.780;2023-04-24T18:12:23;99424.44;;;14.46;47.41
75609;BME280;64194;51.044;13.780;2023-04-24T18:16:44;99436.06;;;14.36;46.21
75609;BME280;64194;51.044;13.780;2023-04-24T18:20:49;99444.75;;;14.18;47.19
75609;BME280;64194;51.044;13.780;2023-04-24T18:24:50;99444.19;;;14.05;47.16
75609;BME280;64194;51.044;13.780;2023-04-24T18:38:40;99460.53;;;13.42;48.32
75609;BME280;64194;51.044;13.780;2023-04-24T18:42:42;99465.59;;;13.24;50.32
75609;BME280;64194;51.044;13.780;2023-04-24T18:46:44;99476.81;;;13.07;49.03
75609;BME280;64194;51.044;13.780;2023-04-24T18:50:46;99485.50;;;12.88;48.55
75609;BME280;64194;51.044;13.780;2023-04-24T18:54:48;99491.84;;;12.87;49.91
75609;BME280;64194;51.044;13.780;2023-04-24T18:58:50;99494.41;;;12.77;49.44
75609;BME280;64194;51.044;13.780;2023-04-24T19:02:59;99502.78;;;12.73;49.22
75609;BME280;64194;51.044;13.780;2023-04-24T19:07:11;99504.81;;;12.80;49.51
75609;BME280;64194;51.044;13.780;2023-04-24T19:11:40;99511.97;;;12.80;48.88
75609;BME280;64194;51.044;13.780;2023-04-24T19:20:33;99525.25;;;12.91;49.95
75609;BME280;64194;51.044;13.780;2023-04-24T19:24:37;99523.34;;;12.82;48.79
75609;BME280;64194;51.044;13.780;2023-04-24T19:28:38;99522.34;;;12.83;49.73
75609;BME280;64194;51.044;13.780;2023-04-24T19:32:47;99527.69;;;12.83;49.77
75609;BME280;64194;51.044;13.780;2023-04-24T19:36:49;99526.47;;;12.87;51.46
75609;BME280;64194;51.044;13.780;2023-04-24T19:40:51;99536.06;;;12.78;50.09
75609;BME280;64194;51.044;13.780;2023-04-24T19:45:14;99535.28;;;12.55;50.33
75609;BME280;64194;51.044;13.780;2023-04-24T19:49:17;99537.75;;;12.36;51.66
75609;BME280;64194;51.044;13.780;2023-04-24T19:53:19;99530.16;;;12.21;51.29
75609;BME280;64194;51.044;13.780;2023-04-24T19:57:22;99533.44;;;12.13;52.32
75609;BME280;64194;51.044;13.780;2023-04-24T20:01:24;99539.03;;;11.99;52.44
75609;BME280;64194;51.044;13.780;2023-04-24T20:05:26;99533.44;;;11.91;52.68
75609;BME280;64194;51.044;13.780;2023-04-24T20:09:51;99548.28;;;11.71;52.98
75609;BME280;64194;51.044;13.780;2023-04-24T20:13:56;99545.25;;;11.64;53.42
75609;BME280;64194;51.044;13.780;2023-04-24T20:17:58;99556.00;;;11.63;53.79
75609;BME280;64194;51.044;13.780;2023-04-24T20:22:02;99554.69;;;11.68;54.16
75609;BME280;64194;51.044;13.780;2023-04-24T20:26:23;99556.16;;;11.72;53.40
75609;BME280;64194;51.044;13.780;2023-04-24T20:30:26;99544.66;;;11.72;53.93
75609;BME280;64194;51.044;13.780;2023-04-24T20:34:27;99550.22;;;11.69;53.89
75609;BME280;64194;51.044;13.780;2023-04-24T20:38:59;99563.13;;;11.62;54.05
75609;BME280;64194;51.044;13.780;2023-04-24T20:43:29;99565.28;;;11.57;55.48
75609;BME280;64194;51.044;13.780;2023-04-24T20:47:31;99564.09;;;11.50;54.53
75609;BME280;64194;51.044;13.780;2023-04-24T20:51:47;99565.03;;;11.38;55.07
75609;BME280;64194;51.044;13.780;2023-04-24T20:55:49;99558.22;;;11.23;55.55
75609;BME280;64194;51.044;13.780;2023-04-24T20:59:51;99562.06;;;11.19;55.42
75609;BME280;64194;51.044;13.780;2023-04-24T21:03:53;99566.38;;;11.09;55.96
75609;BME280;64194;51.044;13.780;2023-04-24T21:07:55;99565.38;;;10.99;56.30
75609;BME280;64194;51.044;13.780;2023-04-24T21:11:57;99570.63;;;10.87;56.69
75609;BME280;64194;51.044;13.780;2023-04-24T21:16:10;99567.13;;;10.87;57.09
75609;BME280;64194;51.044;13.780;2023-04-24T21:20:42;99563.22;;;11.04;59.83
75609;BME280;64194;51.044;13.780;2023-04-24T21:29:48;99560.09;;;11.10;56.18
75609;BME280;64194;51.044;13.780;2023-04-24T21:33:54;99559.03;;;11.12;56.24
75609;BME280;64194;51.044;13.780;2023-04-24T21:38:30;99559.66;;;11.16;56.25
75609;BME280;64194;51.044;13.780;2023-04-24T21:47:50;99546.78;;;10.99;56.16
75609;BME280;64194;51.044;13.780;2023-04-24T21:51:52;99544.41;;;10.83;56.91
75609;BME280;64194;51.044;13.780;2023-04-24T21:56:20;99546.06;;;10.73;57.14
75609;BME280;64194;51.044;13.780;2023-04-24T22:00:22;99541.31;;;10.65;57.61
75609;BME280;64194;51.044;13.780;2023-04-24T22:04:57;99541.56;;;10.62;57.95
75609;BME280;64194;51.044;13.780;2023-04-24T22:08:59;99542.50;;;10.61;57.82
75609;BME280;64194;51.044;13.780;2023-04-24T22:13:02;99537.09;;;10.63;58.40
75609;BME280;64194;51.044;13.780;2023-04-24T22:17:03;99536.00;;;10.65;58.60
75609;BME280;64194;51.044;13.780;2023-04-24T22:21:07;99536.59;;;10.58;58.33
75609;BME280;64194;51.044;13.780;2023-04-24T22:25:41;99540.13;;;10.45;nan
75609;BME280;64194;51.044;13.780;2023-04-24T22:30:16;99541.69;;;10.24;59.28
75609;BME280;64194;51.044;13.780;2023-04-24T22:34:18;99544.03;;;10.03;60.17
75609;BME280;64194;51.044;13.780;2023-04-24T22:38:20;99545.94;;;9.89;60.67
75609;BME280;64194;51.044;13.780;2023-04-24T22:42:55;99549.16;;;9.81;60.97
75609;BME280;64194;51.044;13.780;2023-04-24T22:47:01;99537.59;;;9.70;61.13
75609;BME280;64194;51.044;13.780;2023-04-24T22:51:08;99541.31;;;9.67;61.69
75609;BME280;64194;51.044;13.780;2023-04-24T22:55:10;99546.59;;;9.67;61.82
75609;BME280;64194;51.044;13.780;2023-04-24T22:59:12;99553.84;;;9.65;61.57
75609;BME280;64194;51.044;13.780;2023-04-24T23:03:14;99548.63;;;9.63;61.52
75609;BME280;64194;51.044;13.780;2023-04-24T23:07:16;99557.34;;;9.53;62.02
75609;BME280;64194;51.044;13.780;2023-04-24T23:11:18;99562.53;;;9.42;62.05
75609;BME280;64194;51.044;13.780;2023-04-24T23:15:22;99566.34;;;9.38;62.64
75609;BME280;64194;51.044;13.780;2023-04-24T23:19:59;99565.59;;;9.36;63.11
75609;BME280;64194;51.044;13.780;2023-04-24T23:24:00;99566.09;;;9.28;63.09
75609;BME280;64194;51.044;13.780;2023-04-24T23:28:36;99561.88;;;9.26;63.41
75609;BME280;64194;51.044;13.780;2023-04-24T23:33:05;99556.88;;;9.34;63.40
75609;BME280;64194;51.044;13.780;2023-04-24T23:37:06;99553.22;;;9.49;63.52
75609;BME280;64194;51.044;13.780;2023-04-24T23:41:08;99555.22;;;9.58;62.78
75609;BME280;64194;51.044;13.780;2023-04-24T23:45:10;99541.53;;;9.64;62.88
75609;BME280;64194;51.044;13.780;2023-04-24T23:49:12;99541.53;;;9.64;63.23
75609;BME280;64194;51.044;13.780;2023-04-24T23:53:30;99549.50;;;9.64;63.25
